sensor_id;sensor_type;location;lat;lon;timestamp;P1;durP1;ratioP1;P2;durP2;ratioP2
22129;SDS011;11231;50.746;4.272;2024-03-08T00:02:16;33.90;;;16.23;;
22129;SDS011;11231;50.746;4.272;2024-03-08T00:04:42;34.00;;;16.73;;
22129;SDS011;11231;50.746;4.272;2024-03-08T00:07:10;31.47;;;15.93;;
22129;SDS011;11231;50.746;4.272;2024-03-08T00:09:35;32.13;;;16.87;;
22129;SDS011;11231;50.746;4.272;2024-03-08T00:12:01;33.73;;;17.50;;
22129;SDS011;11231;50.746;4.272;2024-03-08T00:14:27;34.37;;;17.53;;
22129;SDS011;11231;50.746;4.272;2024-03-08T00:16:53;34.90;;;16.37;;
22129;SDS011;11231;50.746;4.272;2024-03-08T00:19:19;33.27;;;17.00;;
22129;SDS011;11231;50.746;4.272;2024-03-08T00:21:45;36.70;;;17.30;;
22129;SDS011;11231;50.746;4.272;2024-03-08T00:24:11;35.27;;;17.33;;
22129;SDS011;11231;50.746;4.272;2024-03-08T00:26:37;33.90;;;16.57;;
22129;SDS011;11231;50.746;4.272;2024-03-08T00:29:03;33.83;;;17.50;;
22129;SDS011;11231;50.746;4.272;2024-03-08T00:31:29;35.10;;;17.10;;
22129;SDS011;11231;50.746;4.272;2024-03-08T00:33:56;35.07;;;17.13;;
22129;SDS011;11231;50.746;4.272;2024-03-08T00:36:22;34.37;;;17.50;;
22129;SDS011;11231;50.746;4.272;2024-03-08T00:38:48;37.10;;;18.27;;
22129;SDS011;11231;50.746;4.272;2024-03-08T00:41:14;34.53;;;17.40;;
22129;SDS011;11231;50.746;4.272;2024-03-08T00:43:39;34.60;;;17.10;;
22129;SDS011;11231;50.746;4.272;2024-03-08T00:46:05;34.83;;;17.47;;
22129;SDS011;11231;50.746;4.272;2024-03-08T00:48:31;31.93;;;16.97;;
22129;SDS011;11231;50.746;4.272;2024-03-08T00:50:57;32.87;;;17.17;;
22129;SDS011;11231;50.746;4.272;2024-03-08T00:53:22;35.03;;;18.07;;
22129;SDS011;11231;50.746;4.272;2024-03-08T00:55:48;35.50;;;17.90;;
22129;SDS011;11231;50.746;4.272;2024-03-08T00:58:14;35.03;;;18.80;;
22129;SDS011;11231;50.746;4.272;2024-03-08T01:00:40;36.47;;;18.10;;
22129;SDS011;11231;50.746;4.272;2024-03-08T01:03:06;33.77;;;17.37;;
22129;SDS011;11231;50.746;4.272;2024-03-08T01:05:32;33.37;;;17.00;;
22129;SDS011;11231;50.746;4.272;2024-03-08T01:08:00;37.30;;;17.83;;
22129;SDS011;11231;50.746;4.272;2024-03-08T01:10:28;36.73;;;17.77;;
22129;SDS011;11231;50.746;4.272;2024-03-08T01:12:54;37.67;;;17.97;;
22129;SDS011;11231;50.746;4.272;2024-03-08T01:15:22;34.67;;;17.87;;
22129;SDS011;11231;50.746;4.272;2024-03-08T01:17:48;34.77;;;16.90;;
22129;SDS011;11231;50.746;4.272;2024-03-08T01:20:15;35.80;;;19.03;;
22129;SDS011;11231;50.746;4.272;2024-03-08T01:22:41;35.53;;;18.00;;
22129;SDS011;11231;50.746;4.272;2024-03-08T01:25:07;36.70;;;17.37;;
22129;SDS011;11231;50.746;4.272;2024-03-08T01:27:33;35.70;;;18.13;;
22129;SDS011;11231;50.746;4.272;2024-03-08T01:30:00;36.53;;;18.03;;
22129;SDS011;11231;50.746;4.272;2024-03-08T01:32:26;37.23;;;17.87;;
22129;SDS011;11231;50.746;4.272;2024-03-08T01:34:52;36.17;;;18.23;;
22129;SDS011;11231;50.746;4.272;2024-03-08T01:37:18;34.13;;;17.70;;
22129;SDS011;11231;50.746;4.272;2024-03-08T01:39:45;37.30;;;18.77;;
22129;SDS011;11231;50.746;4.272;2024-03-08T01:42:10;34.70;;;18.63;;
22129;SDS011;11231;50.746;4.272;2024-03-08T01:44:38;33.57;;;17.43;;
22129;SDS011;11231;50.746;4.272;2024-03-08T01:47:04;34.33;;;18.43;;
22129;SDS011;11231;50.746;4.272;2024-03-08T01:49:30;35.80;;;18.30;;
22129;SDS011;11231;50.746;4.272;2024-03-08T01:51:56;34.60;;;18.40;;
22129;SDS011;11231;50.746;4.272;2024-03-08T01:54:22;38.40;;;19.43;;
22129;SDS011;11231;50.746;4.272;2024-03-08T01:56:49;36.97;;;18.43;;
22129;SDS011;11231;50.746;4.272;2024-03-08T01:59:15;33.43;;;18.27;;
22129;SDS011;11231;50.746;4.272;2024-03-08T02:01:41;35.57;;;19.43;;
22129;SDS011;11231;50.746;4.272;2024-03-08T02:04:08;36.43;;;18.53;;
22129;SDS011;11231;50.746;4.272;2024-03-08T02:06:34;37.47;;;19.00;;
22129;SDS011;11231;50.746;4.272;2024-03-08T02:09:00;33.90;;;18.97;;
22129;SDS011;11231;50.746;4.272;2024-03-08T02:11:31;34.17;;;18.23;;
22129;SDS011;11231;50.746;4.272;2024-03-08T02:13:58;36.93;;;18.20;;
22129;SDS011;11231;50.746;4.272;2024-03-08T02:16:24;37.23;;;19.70;;
22129;SDS011;11231;50.746;4.272;2024-03-08T02:18:50;33.30;;;18.93;;
22129;SDS011;11231;50.746;4.272;2024-03-08T02:21:17;36.37;;;19.83;;
22129;SDS011;11231;50.746;4.272;2024-03-08T02:23:46;35.70;;;19.30;;
22129;SDS011;11231;50.746;4.272;2024-03-08T02:26:12;33.63;;;18.73;;
22129;SDS011;11231;50.746;4.272;2024-03-08T02:28:38;34.93;;;19.73;;
22129;SDS011;11231;50.746;4.272;2024-03-08T02:31:04;38.63;;;19.77;;
22129;SDS011;11231;50.746;4.272;2024-03-08T02:33:33;38.20;;;20.40;;
22129;SDS011;11231;50.746;4.272;2024-03-08T02:35:59;39.90;;;21.33;;
22129;SDS011;11231;50.746;4.272;2024-03-08T02:38:25;37.90;;;20.33;;
22129;SDS011;11231;50.746;4.272;2024-03-08T02:40:51;37.73;;;20.13;;
22129;SDS011;11231;50.746;4.272;2024-03-08T02:43:18;37.77;;;19.67;;
22129;SDS011;11231;50.746;4.272;2024-03-08T02:45:45;37.30;;;19.50;;
22129;SDS011;11231;50.746;4.272;2024-03-08T02:48:11;41.13;;;20.83;;
22129;SDS011;11231;50.746;4.272;2024-03-08T02:50:38;42.37;;;20.97;;
22129;SDS011;11231;50.746;4.272;2024-03-08T02:53:10;37.30;;;21.30;;
22129;SDS011;11231;50.746;4.272;2024-03-08T02:55:36;39.13;;;22.07;;
22129;SDS011;11231;50.746;4.272;2024-03-08T02:58:04;35.67;;;21.07;;
22129;SDS011;11231;50.746;4.272;2024-03-08T03:00:30;37.33;;;21.33;;
22129;SDS011;11231;50.746;4.272;2024-03-08T03:02:56;44.53;;;21.57;;
22129;SDS011;11231;50.746;4.272;2024-03-08T03:05:23;39.33;;;21.23;;
22129;SDS011;11231;50.746;4.272;2024-03-08T03:07:49;40.07;;;22.27;;
22129;SDS011;11231;50.746;4.272;2024-03-08T03:10:16;39.47;;;21.77;;
22129;SDS011;11231;50.746;4.272;2024-03-08T03:12:43;36.67;;;21.43;;
22129;SDS011;11231;50.746;4.272;2024-03-08T03:15:12;35.83;;;21.17;;
22129;SDS011;11231;50.746;4.272;2024-03-08T03:17:38;37.83;;;21.97;;
22129;SDS011;11231;50.746;4.272;2024-03-08T03:20:08;39.07;;;22.17;;
22129;SDS011;11231;50.746;4.272;2024-03-08T03:22:36;36.47;;;21.83;;
22129;SDS011;11231;50.746;4.272;2024-03-08T03:25:02;35.27;;;21.10;;
22129;SDS011;11231;50.746;4.272;2024-03-08T03:27:29;41.03;;;23.47;;
22129;SDS011;11231;50.746;4.272;2024-03-08T03:29:55;39.27;;;21.73;;
22129;SDS011;11231;50.746;4.272;2024-03-08T03:32:23;38.43;;;21.83;;
22129;SDS011;11231;50.746;4.272;2024-03-08T03:34:48;38.80;;;22.97;;
22129;SDS011;11231;50.746;4.272;2024-03-08T03:37:19;35.67;;;22.03;;
22129;SDS011;11231;50.746;4.272;2024-03-08T03:39:45;36.57;;;23.27;;
22129;SDS011;11231;50.746;4.272;2024-03-08T03:42:17;41.50;;;23.17;;
22129;SDS011;11231;50.746;4.272;2024-03-08T03:44:44;42.93;;;23.23;;
22129;SDS011;11231;50.746;4.272;2024-03-08T03:47:13;44.97;;;23.73;;
22129;SDS011;11231;50.746;4.272;2024-03-08T03:49:42;40.63;;;23.67;;
22129;SDS011;11231;50.746;4.272;2024-03-08T03:52:08;39.63;;;22.40;;
22129;SDS011;11231;50.746;4.272;2024-03-08T03:54:34;40.93;;;23.63;;
22129;SDS011;11231;50.746;4.272;2024-03-08T03:57:00;38.93;;;23.23;;
22129;SDS011;11231;50.746;4.272;2024-03-08T03:59:26;39.50;;;23.43;;
22129;SDS011;11231;50.746;4.272;2024-03-08T04:01:52;37.73;;;23.40;;
22129;SDS011;11231;50.746;4.272;2024-03-08T04:04:19;40.20;;;23.70;;
22129;SDS011;11231;50.746;4.272;2024-03-08T04:06:46;37.90;;;23.57;;
22129;SDS011;11231;50.746;4.272;2024-03-08T04:09:11;41.73;;;24.13;;
22129;SDS011;11231;50.746;4.272;2024-03-08T04:11:38;43.90;;;23.80;;
22129;SDS011;11231;50.746;4.272;2024-03-08T04:14:04;42.10;;;23.43;;
22129;SDS011;11231;50.746;4.272;2024-03-08T04:16:30;41.53;;;24.57;;
22129;SDS011;11231;50.746;4.272;2024-03-08T04:18:57;44.10;;;24.60;;
22129;SDS011;11231;50.746;4.272;2024-03-08T04:21:23;42.67;;;24.33;;
22129;SDS011;11231;50.746;4.272;2024-03-08T04:23:49;40.83;;;24.10;;
22129;SDS011;11231;50.746;4.272;2024-03-08T04:26:15;41.27;;;24.90;;
22129;SDS011;11231;50.746;4.272;2024-03-08T04:28:41;41.27;;;24.57;;
22129;SDS011;11231;50.746;4.272;2024-03-08T04:31:06;39.83;;;24.97;;
22129;SDS011;11231;50.746;4.272;2024-03-08T04:33:32;43.43;;;25.20;;
22129;SDS011;11231;50.746;4.272;2024-03-08T04:36:01;41.03;;;23.77;;
22129;SDS011;11231;50.746;4.272;2024-03-08T04:38:29;45.27;;;25.23;;
22129;SDS011;11231;50.746;4.272;2024-03-08T04:40:56;44.63;;;26.10;;
22129;SDS011;11231;50.746;4.272;2024-03-08T04:43:22;42.93;;;25.27;;
22129;SDS011;11231;50.746;4.272;2024-03-08T04:45:52;45.70;;;25.03;;
22129;SDS011;11231;50.746;4.272;2024-03-08T04:48:18;42.30;;;24.93;;
22129;SDS011;11231;50.746;4.272;2024-03-08T04:50:45;42.17;;;25.03;;
22129;SDS011;11231;50.746;4.272;2024-03-08T04:53:11;44.73;;;23.97;;
22129;SDS011;11231;50.746;4.272;2024-03-08T04:55:37;40.57;;;25.60;;
22129;SDS011;11231;50.746;4.272;2024-03-08T04:58:03;40.47;;;24.80;;
22129;SDS011;11231;50.746;4.272;2024-03-08T05:00:32;43.23;;;25.50;;
22129;SDS011;11231;50.746;4.272;2024-03-08T05:02:58;45.47;;;26.37;;
22129;SDS011;11231;50.746;4.272;2024-03-08T05:05:24;40.63;;;25.00;;
22129;SDS011;11231;50.746;4.272;2024-03-08T05:07:51;41.77;;;25.37;;
22129;SDS011;11231;50.746;4.272;2024-03-08T05:10:17;42.10;;;24.43;;
22129;SDS011;11231;50.746;4.272;2024-03-08T05:12:43;44.03;;;25.87;;
22129;SDS011;11231;50.746;4.272;2024-03-08T05:15:09;43.10;;;24.77;;
22129;SDS011;11231;50.746;4.272;2024-03-08T05:17:35;45.27;;;25.43;;
22129;SDS011;11231;50.746;4.272;2024-03-08T05:20:01;43.47;;;25.77;;
22129;SDS011;11231;50.746;4.272;2024-03-08T05:22:29;44.07;;;25.63;;
22129;SDS011;11231;50.746;4.272;2024-03-08T05:24:54;46.17;;;26.63;;
22129;SDS011;11231;50.746;4.272;2024-03-08T05:27:20;46.67;;;26.03;;
22129;SDS011;11231;50.746;4.272;2024-03-08T05:29:46;42.87;;;24.57;;
22129;SDS011;11231;50.746;4.272;2024-03-08T05:32:12;42.73;;;25.77;;
22129;SDS011;11231;50.746;4.272;2024-03-08T05:34:38;44.93;;;25.20;;
22129;SDS011;11231;50.746;4.272;2024-03-08T05:37:03;47.50;;;24.37;;
22129;SDS011;11231;50.746;4.272;2024-03-08T05:39:29;49.77;;;26.83;;
22129;SDS011;11231;50.746;4.272;2024-03-08T05:41:55;46.77;;;26.67;;
22129;SDS011;11231;50.746;4.272;2024-03-08T05:44:21;47.90;;;25.20;;
22129;SDS011;11231;50.746;4.272;2024-03-08T05:46:47;45.40;;;26.27;;
22129;SDS011;11231;50.746;4.272;2024-03-08T05:49:13;47.53;;;25.67;;
22129;SDS011;11231;50.746;4.272;2024-03-08T05:51:39;45.10;;;25.47;;
22129;SDS011;11231;50.746;4.272;2024-03-08T05:54:09;46.47;;;24.63;;
22129;SDS011;11231;50.746;4.272;2024-03-08T05:56:36;46.00;;;25.30;;
22129;SDS011;11231;50.746;4.272;2024-03-08T05:59:03;44.33;;;26.63;;
22129;SDS011;11231;50.746;4.272;2024-03-08T06:01:29;42.93;;;25.77;;
22129;SDS011;11231;50.746;4.272;2024-03-08T06:03:56;45.43;;;26.00;;
22129;SDS011;11231;50.746;4.272;2024-03-08T06:06:25;46.17;;;26.40;;
22129;SDS011;11231;50.746;4.272;2024-03-08T06:08:51;44.37;;;26.60;;
22129;SDS011;11231;50.746;4.272;2024-03-08T06:11:19;48.70;;;25.83;;
22129;SDS011;11231;50.746;4.272;2024-03-08T06:13:46;40.70;;;23.53;;
22129;SDS011;11231;50.746;4.272;2024-03-08T06:16:12;47.23;;;26.60;;
22129;SDS011;11231;50.746;4.272;2024-03-08T06:18:38;48.83;;;26.33;;
22129;SDS011;11231;50.746;4.272;2024-03-08T06:21:07;41.33;;;25.33;;
22129;SDS011;11231;50.746;4.272;2024-03-08T06:23:41;45.77;;;25.50;;
22129;SDS011;11231;50.746;4.272;2024-03-08T06:26:07;47.83;;;26.27;;
22129;SDS011;11231;50.746;4.272;2024-03-08T06:28:33;45.50;;;25.77;;
22129;SDS011;11231;50.746;4.272;2024-03-08T06:31:02;48.50;;;26.87;;
22129;SDS011;11231;50.746;4.272;2024-03-08T06:33:28;43.83;;;25.30;;
22129;SDS011;11231;50.746;4.272;2024-03-08T06:35:54;48.80;;;26.17;;
22129;SDS011;11231;50.746;4.272;2024-03-08T06:38:23;46.70;;;25.67;;
22129;SDS011;11231;50.746;4.272;2024-03-08T06:40:50;48.53;;;25.37;;
22129;SDS011;11231;50.746;4.272;2024-03-08T06:43:17;42.80;;;25.10;;
22129;SDS011;11231;50.746;4.272;2024-03-08T06:45:43;42.23;;;24.27;;
22129;SDS011;11231;50.746;4.272;2024-03-08T06:48:18;45.47;;;25.77;;
22129;SDS011;11231;50.746;4.272;2024-03-08T06:50:44;46.93;;;24.27;;
22129;SDS011;11231;50.746;4.272;2024-03-08T06:53:12;41.03;;;24.33;;
22129;SDS011;11231;50.746;4.272;2024-03-08T06:55:39;45.10;;;25.70;;
22129;SDS011;11231;50.746;4.272;2024-03-08T06:58:05;42.00;;;24.30;;
22129;SDS011;11231;50.746;4.272;2024-03-08T07:00:32;45.50;;;24.07;;
22129;SDS011;11231;50.746;4.272;2024-03-08T07:02:58;43.67;;;23.57;;
22129;SDS011;11231;50.746;4.272;2024-03-08T07:05:26;45.83;;;25.00;;
22129;SDS011;11231;50.746;4.272;2024-03-08T07:07:53;42.70;;;23.50;;
22129;SDS011;11231;50.746;4.272;2024-03-08T07:10:22;44.20;;;24.03;;
22129;SDS011;11231;50.746;4.272;2024-03-08T07:12:50;43.90;;;23.70;;
22129;SDS011;11231;50.746;4.272;2024-03-08T07:15:16;39.87;;;23.83;;
22129;SDS011;11231;50.746;4.272;2024-03-08T07:17:44;37.47;;;21.70;;
22129;SDS011;11231;50.746;4.272;2024-03-08T07:20:13;38.77;;;21.73;;
22129;SDS011;11231;50.746;4.272;2024-03-08T07:22:41;33.90;;;21.13;;
22129;SDS011;11231;50.746;4.272;2024-03-08T07:25:08;35.70;;;21.17;;
22129;SDS011;11231;50.746;4.272;2024-03-08T07:27:48;36.27;;;21.40;;
22129;SDS011;11231;50.746;4.272;2024-03-08T07:30:18;35.20;;;21.80;;
22129;SDS011;11231;50.746;4.272;2024-03-08T07:33:04;33.27;;;20.67;;
22129;SDS011;11231;50.746;4.272;2024-03-08T07:35:31;33.80;;;19.77;;
22129;SDS011;11231;50.746;4.272;2024-03-08T07:37:57;35.87;;;21.17;;
22129;SDS011;11231;50.746;4.272;2024-03-08T07:40:25;36.20;;;21.47;;
22129;SDS011;11231;50.746;4.272;2024-03-08T07:42:52;34.17;;;20.30;;
22129;SDS011;11231;50.746;4.272;2024-03-08T07:45:18;33.10;;;20.20;;
22129;SDS011;11231;50.746;4.272;2024-03-08T07:47:43;37.37;;;21.77;;
22129;SDS011;11231;50.746;4.272;2024-03-08T07:50:09;37.53;;;21.23;;
22129;SDS011;11231;50.746;4.272;2024-03-08T07:52:35;31.37;;;20.20;;
22129;SDS011;11231;50.746;4.272;2024-03-08T07:55:02;35.17;;;20.57;;
22129;SDS011;11231;50.746;4.272;2024-03-08T07:57:29;35.63;;;20.07;;
22129;SDS011;11231;50.746;4.272;2024-03-08T07:59:55;31.67;;;19.23;;
22129;SDS011;11231;50.746;4.272;2024-03-08T08:02:21;31.53;;;19.70;;
22129;SDS011;11231;50.746;4.272;2024-03-08T08:04:47;30.50;;;18.87;;
22129;SDS011;11231;50.746;4.272;2024-03-08T08:07:12;32.23;;;19.20;;
22129;SDS011;11231;50.746;4.272;2024-03-08T08:09:39;31.77;;;18.70;;
22129;SDS011;11231;50.746;4.272;2024-03-08T08:12:08;32.37;;;19.73;;
22129;SDS011;11231;50.746;4.272;2024-03-08T08:14:39;36.83;;;20.97;;
22129;SDS011;11231;50.746;4.272;2024-03-08T08:17:06;31.40;;;20.43;;
22129;SDS011;11231;50.746;4.272;2024-03-08T08:19:33;35.50;;;21.50;;
22129;SDS011;11231;50.746;4.272;2024-03-08T08:22:03;33.60;;;20.07;;
22129;SDS011;11231;50.746;4.272;2024-03-08T08:24:29;35.17;;;21.37;;
22129;SDS011;11231;50.746;4.272;2024-03-08T08:26:55;33.53;;;19.87;;
22129;SDS011;11231;50.746;4.272;2024-03-08T08:29:21;34.70;;;21.30;;
22129;SDS011;11231;50.746;4.272;2024-03-08T08:31:48;35.90;;;20.67;;
22129;SDS011;11231;50.746;4.272;2024-03-08T08:34:15;35.57;;;21.30;;
22129;SDS011;11231;50.746;4.272;2024-03-08T08:36:44;36.90;;;20.60;;
22129;SDS011;11231;50.746;4.272;2024-03-08T08:39:10;34.73;;;21.37;;
22129;SDS011;11231;50.746;4.272;2024-03-08T08:41:39;36.27;;;19.30;;
22129;SDS011;11231;50.746;4.272;2024-03-08T08:44:07;38.03;;;20.90;;
22129;SDS011;11231;50.746;4.272;2024-03-08T08:46:35;38.57;;;20.67;;
22129;SDS011;11231;50.746;4.272;2024-03-08T08:49:03;36.60;;;20.57;;
22129;SDS011;11231;50.746;4.272;2024-03-08T08:51:30;35.53;;;20.30;;
22129;SDS011;11231;50.746;4.272;2024-03-08T08:53:58;37.23;;;20.70;;
22129;SDS011;11231;50.746;4.272;2024-03-08T08:56:24;36.17;;;20.93;;
22129;SDS011;11231;50.746;4.272;2024-03-08T08:58:51;33.03;;;19.13;;
22129;SDS011;11231;50.746;4.272;2024-03-08T09:01:18;35.37;;;19.17;;
22129;SDS011;11231;50.746;4.272;2024-03-08T09:03:45;31.00;;;18.57;;
22129;SDS011;11231;50.746;4.272;2024-03-08T09:06:12;33.43;;;18.80;;
22129;SDS011;11231;50.746;4.272;2024-03-08T09:08:41;34.77;;;19.47;;
22129;SDS011;11231;50.746;4.272;2024-03-08T09:11:09;32.97;;;19.43;;
22129;SDS011;11231;50.746;4.272;2024-03-08T09:13:35;32.60;;;19.93;;
22129;SDS011;11231;50.746;4.272;2024-03-08T09:16:02;31.87;;;18.60;;
22129;SDS011;11231;50.746;4.272;2024-03-08T09:18:30;34.93;;;18.70;;
22129;SDS011;11231;50.746;4.272;2024-03-08T09:20:57;34.07;;;19.90;;
22129;SDS011;11231;50.746;4.272;2024-03-08T09:23:24;37.03;;;19.67;;
22129;SDS011;11231;50.746;4.272;2024-03-08T09:25:51;33.63;;;20.30;;
22129;SDS011;11231;50.746;4.272;2024-03-08T09:28:17;34.00;;;20.03;;
22129;SDS011;11231;50.746;4.272;2024-03-08T09:30:56;33.77;;;19.00;;
22129;SDS011;11231;50.746;4.272;2024-03-08T09:33:24;33.77;;;19.07;;
22129;SDS011;11231;50.746;4.272;2024-03-08T09:35:49;32.57;;;17.93;;
22129;SDS011;11231;50.746;4.272;2024-03-08T09:38:16;31.73;;;18.40;;
22129;SDS011;11231;50.746;4.272;2024-03-08T09:40:42;34.63;;;18.53;;
22129;SDS011;11231;50.746;4.272;2024-03-08T09:43:09;35.10;;;19.63;;
22129;SDS011;11231;50.746;4.272;2024-03-08T09:45:37;33.50;;;19.13;;
22129;SDS011;11231;50.746;4.272;2024-03-08T09:48:09;30.97;;;19.03;;
22129;SDS011;11231;50.746;4.272;2024-03-08T09:50:40;34.10;;;19.43;;
22129;SDS011;11231;50.746;4.272;2024-03-08T09:53:09;30.77;;;18.40;;
22129;SDS011;11231;50.746;4.272;2024-03-08T09:55:37;31.63;;;18.27;;
22129;SDS011;11231;50.746;4.272;2024-03-08T09:58:14;30.10;;;17.90;;
22129;SDS011;11231;50.746;4.272;2024-03-08T10:01:06;32.47;;;18.67;;
22129;SDS011;11231;50.746;4.272;2024-03-08T10:03:32;31.47;;;18.37;;
22129;SDS011;11231;50.746;4.272;2024-03-08T10:05:58;31.57;;;17.53;;
22129;SDS011;11231;50.746;4.272;2024-03-08T10:08:28;28.73;;;17.23;;
22129;SDS011;11231;50.746;4.272;2024-03-08T10:10:55;27.37;;;16.47;;
22129;SDS011;11231;50.746;4.272;2024-03-08T10:13:26;27.37;;;16.17;;
22129;SDS011;11231;50.746;4.272;2024-03-08T10:15:53;26.87;;;16.53;;
22129;SDS011;11231;50.746;4.272;2024-03-08T10:18:19;27.93;;;16.80;;
22129;SDS011;11231;50.746;4.272;2024-03-08T10:21:03;26.00;;;16.60;;
22129;SDS011;11231;50.746;4.272;2024-03-08T10:23:36;26.10;;;16.37;;
22129;SDS011;11231;50.746;4.272;2024-03-08T10:26:14;25.50;;;16.77;;
22129;SDS011;11231;50.746;4.272;2024-03-08T10:28:42;26.73;;;16.83;;
22129;SDS011;11231;50.746;4.272;2024-03-08T10:31:09;26.33;;;16.67;;
22129;SDS011;11231;50.746;4.272;2024-03-08T10:33:35;27.27;;;17.30;;
22129;SDS011;11231;50.746;4.272;2024-03-08T10:36:03;24.13;;;15.37;;
22129;SDS011;11231;50.746;4.272;2024-03-08T10:38:31;27.43;;;16.47;;
22129;SDS011;11231;50.746;4.272;2024-03-08T10:41:00;25.97;;;17.63;;
22129;SDS011;11231;50.746;4.272;2024-03-08T10:43:28;26.43;;;16.30;;
22129;SDS011;11231;50.746;4.272;2024-03-08T10:46:10;25.93;;;16.63;;
22129;SDS011;11231;50.746;4.272;2024-03-08T10:49:02;26.20;;;16.47;;
22129;SDS011;11231;50.746;4.272;2024-03-08T10:51:38;25.73;;;16.00;;
22129;SDS011;11231;50.746;4.272;2024-03-08T10:54:07;28.10;;;15.90;;
22129;SDS011;11231;50.746;4.272;2024-03-08T10:56:34;27.77;;;16.63;;
22129;SDS011;11231;50.746;4.272;2024-03-08T10:59:01;24.23;;;16.63;;
22129;SDS011;11231;50.746;4.272;2024-03-08T11:01:29;24.03;;;15.27;;
22129;SDS011;11231;50.746;4.272;2024-03-08T11:03:55;22.73;;;15.70;;
22129;SDS011;11231;50.746;4.272;2024-03-08T11:06:22;24.53;;;16.30;;
22129;SDS011;11231;50.746;4.272;2024-03-08T11:14:56;23.73;;;15.23;;
22129;SDS011;11231;50.746;4.272;2024-03-08T11:19:57;22.10;;;15.67;;
22129;SDS011;11231;50.746;4.272;2024-03-08T11:22:27;23.33;;;15.70;;
22129;SDS011;11231;50.746;4.272;2024-03-08T11:25:02;23.43;;;15.90;;
22129;SDS011;11231;50.746;4.272;2024-03-08T11:27:34;24.70;;;16.03;;
22129;SDS011;11231;50.746;4.272;2024-03-08T11:30:05;22.77;;;15.07;;
22129;SDS011;11231;50.746;4.272;2024-03-08T11:32:47;26.50;;;16.40;;
22129;SDS011;11231;50.746;4.272;2024-03-08T11:35:19;24.23;;;15.80;;
22129;SDS011;11231;50.746;4.272;2024-03-08T11:37:46;25.33;;;17.00;;
22129;SDS011;11231;50.746;4.272;2024-03-08T11:40:13;22.67;;;15.80;;
22129;SDS011;11231;50.746;4.272;2024-03-08T11:42:44;26.43;;;16.33;;
22129;SDS011;11231;50.746;4.272;2024-03-08T11:45:12;25.60;;;16.07;;
22129;SDS011;11231;50.746;4.272;2024-03-08T11:47:41;21.97;;;15.20;;
22129;SDS011;11231;50.746;4.272;2024-03-08T11:50:10;23.10;;;15.13;;
22129;SDS011;11231;50.746;4.272;2024-03-08T11:52:36;23.67;;;15.30;;
22129;SDS011;11231;50.746;4.272;2024-03-08T11:55:03;24.20;;;16.00;;
22129;SDS011;11231;50.746;4.272;2024-03-08T11:57:30;24.40;;;15.23;;
22129;SDS011;11231;50.746;4.272;2024-03-08T11:59:57;25.73;;;16.17;;
22129;SDS011;11231;50.746;4.272;2024-03-08T12:02:33;21.77;;;14.87;;
22129;SDS011;11231;50.746;4.272;2024-03-08T12:05:03;27.27;;;16.77;;
22129;SDS011;11231;50.746;4.272;2024-03-08T12:07:29;22.27;;;14.93;;
22129;SDS011;11231;50.746;4.272;2024-03-08T12:10:17;22.93;;;15.37;;
22129;SDS011;11231;50.746;4.272;2024-03-08T12:12:45;24.77;;;16.03;;
22129;SDS011;11231;50.746;4.272;2024-03-08T12:15:12;22.57;;;15.40;;
22129;SDS011;11231;50.746;4.272;2024-03-08T12:17:40;23.87;;;15.83;;
22129;SDS011;11231;50.746;4.272;2024-03-08T12:20:11;23.53;;;14.40;;
22129;SDS011;11231;50.746;4.272;2024-03-08T12:22:47;24.47;;;14.73;;
22129;SDS011;11231;50.746;4.272;2024-03-08T12:25:14;23.67;;;14.90;;
22129;SDS011;11231;50.746;4.272;2024-03-08T12:27:40;22.30;;;14.90;;
22129;SDS011;11231;50.746;4.272;2024-03-08T12:30:23;25.17;;;15.17;;
22129;SDS011;11231;50.746;4.272;2024-03-08T12:35:23;22.80;;;15.03;;
22129;SDS011;11231;50.746;4.272;2024-03-08T12:37:52;22.03;;;14.60;;
22129;SDS011;11231;50.746;4.272;2024-03-08T12:40:19;26.53;;;14.57;;
22129;SDS011;11231;50.746;4.272;2024-03-08T12:42:52;24.00;;;14.83;;
22129;SDS011;11231;50.746;4.272;2024-03-08T12:45:17;22.27;;;14.67;;
22129;SDS011;11231;50.746;4.272;2024-03-08T12:47:43;23.63;;;14.77;;
22129;SDS011;11231;50.746;4.272;2024-03-08T12:50:10;21.30;;;14.73;;
22129;SDS011;11231;50.746;4.272;2024-03-08T12:52:36;24.27;;;15.27;;
22129;SDS011;11231;50.746;4.272;2024-03-08T12:55:02;22.83;;;15.40;;
22129;SDS011;11231;50.746;4.272;2024-03-08T12:57:28;20.07;;;13.27;;
22129;SDS011;11231;50.746;4.272;2024-03-08T12:59:54;21.87;;;14.37;;
22129;SDS011;11231;50.746;4.272;2024-03-08T13:02:20;21.97;;;14.77;;
22129;SDS011;11231;50.746;4.272;2024-03-08T13:04:46;20.40;;;14.03;;
22129;SDS011;11231;50.746;4.272;2024-03-08T13:07:21;23.13;;;14.30;;
22129;SDS011;11231;50.746;4.272;2024-03-08T13:09:48;22.63;;;14.43;;
22129;SDS011;11231;50.746;4.272;2024-03-08T13:12:14;21.23;;;13.87;;
22129;SDS011;11231;50.746;4.272;2024-03-08T13:14:40;23.17;;;15.10;;
22129;SDS011;11231;50.746;4.272;2024-03-08T13:17:06;23.93;;;14.70;;
22129;SDS011;11231;50.746;4.272;2024-03-08T13:19:36;25.67;;;14.80;;
22129;SDS011;11231;50.746;4.272;2024-03-08T13:22:03;23.83;;;15.53;;
22129;SDS011;11231;50.746;4.272;2024-03-08T13:24:30;25.67;;;15.30;;
22129;SDS011;11231;50.746;4.272;2024-03-08T13:26:56;24.93;;;15.03;;
22129;SDS011;11231;50.746;4.272;2024-03-08T13:29:23;26.30;;;15.00;;
22129;SDS011;11231;50.746;4.272;2024-03-08T13:31:48;25.17;;;15.07;;
22129;SDS011;11231;50.746;4.272;2024-03-08T13:34:19;25.33;;;14.87;;
22129;SDS011;11231;50.746;4.272;2024-03-08T13:36:53;21.57;;;13.73;;
22129;SDS011;11231;50.746;4.272;2024-03-08T13:39:25;25.60;;;15.30;;
22129;SDS011;11231;50.746;4.272;2024-03-08T13:41:51;22.70;;;14.70;;
22129;SDS011;11231;50.746;4.272;2024-03-08T13:44:16;24.40;;;15.17;;
22129;SDS011;11231;50.746;4.272;2024-03-08T13:46:42;26.57;;;15.23;;
22129;SDS011;11231;50.746;4.272;2024-03-08T13:49:08;23.43;;;14.43;;
22129;SDS011;11231;50.746;4.272;2024-03-08T13:51:36;22.43;;;14.37;;
22129;SDS011;11231;50.746;4.272;2024-03-08T13:54:02;22.83;;;14.20;;
22129;SDS011;11231;50.746;4.272;2024-03-08T13:56:31;27.43;;;14.60;;
22129;SDS011;11231;50.746;4.272;2024-03-08T13:58:57;24.57;;;14.30;;
22129;SDS011;11231;50.746;4.272;2024-03-08T14:01:23;22.93;;;13.87;;
22129;SDS011;11231;50.746;4.272;2024-03-08T14:03:49;25.07;;;13.50;;
22129;SDS011;11231;50.746;4.272;2024-03-08T14:06:15;22.00;;;13.40;;
22129;SDS011;11231;50.746;4.272;2024-03-08T14:08:41;23.50;;;13.70;;
22129;SDS011;11231;50.746;4.272;2024-03-08T14:11:07;22.90;;;13.40;;
22129;SDS011;11231;50.746;4.272;2024-03-08T14:13:40;23.60;;;13.67;;
22129;SDS011;11231;50.746;4.272;2024-03-08T14:16:13;20.77;;;12.77;;
22129;SDS011;11231;50.746;4.272;2024-03-08T14:18:38;22.30;;;13.30;;
22129;SDS011;11231;50.746;4.272;2024-03-08T14:21:04;21.60;;;12.80;;
22129;SDS011;11231;50.746;4.272;2024-03-08T14:23:33;24.23;;;13.10;;
22129;SDS011;11231;50.746;4.272;2024-03-08T14:25:59;21.70;;;12.47;;
22129;SDS011;11231;50.746;4.272;2024-03-08T14:28:25;21.67;;;13.13;;
22129;SDS011;11231;50.746;4.272;2024-03-08T14:30:52;18.33;;;11.43;;
22129;SDS011;11231;50.746;4.272;2024-03-08T14:33:18;21.77;;;11.67;;
22129;SDS011;11231;50.746;4.272;2024-03-08T14:35:44;21.00;;;11.80;;